»·PEaware :: UAL935 KCOS-KDEN

UAL935 :: KCOS-KDEN

FLIGHT INFORMATION

Flight Status: Arrived
Operator:
United Airlines
More flights by this operator :: More flights under this callsign
Pilot: Michael S. (20314)
Aircraft: AIRBUS A321
(A321)
More flights by this aircraft type
Origin: KCOS City Of Colorado Springs Mun
United States
Destination: KDEN Denver Intl
United States
More flights between these airports :: More routes between these airports
Route: ADANE V389 LUFSE JEFEL
File this flight plan on PilotEdge
Remarks: RMK / SIMBRIEF
Altitude:
(Current/Filed)
12,000ft
Speed:
(Current/Filed)
361kts
Departed: 07-Jun-22 04:32 PM
Arrived: 07-Jun-22 04:56 PM
Distance/Time
Traveled:
63nm/0:23
Distance/Time
To Go:
Arrived

Flight Plot

Page will automatically refresh every two minutes.

Flight plan parsing failed; only flown route is shown


Map Options




Map Legend


Flown Route
Filed Route
Departure Airport
Arrival Airport
Navaid (VOR, NDB)
Fix

Horizontal Profiles

Position Reports

Time Latitude Longitude Heading Altitude Ground
Speed
07-Jun-22 16:02 38.797936 -104.701548 100 6196ft 0kts
07-Jun-22 16:03 38.797936 -104.701548 100 6196ft 0kts
07-Jun-22 16:04 38.797936 -104.701548 100 6196ft 0kts
07-Jun-22 16:05 38.797936 -104.701548 100 6196ft 0kts
07-Jun-22 16:06 38.797936 -104.701548 100 6196ft 0kts
07-Jun-22 16:07 38.797936 -104.701548 100 6196ft 0kts
07-Jun-22 16:08 38.797936 -104.701548 100 6196ft 0kts
07-Jun-22 16:09 38.797936 -104.701548 100 6196ft 0kts
07-Jun-22 16:10 38.797936 -104.701548 100 6196ft 0kts
07-Jun-22 16:11 38.797936 -104.701548 100 6196ft 0kts
07-Jun-22 16:12 38.797936 -104.701548 100 6196ft 0kts
07-Jun-22 16:13 38.797936 -104.701548 100 6196ft 0kts
07-Jun-22 16:14 38.797936 -104.701548 100 6196ft 0kts
07-Jun-22 16:15 38.797936 -104.701548 100 6196ft 0kts
07-Jun-22 16:16 38.797938 -104.701570 99 6196ft 1kts
07-Jun-22 16:17 38.798105 -104.702132 123 6196ft 2kts
07-Jun-22 16:18 38.798416 -104.702731 123 6196ft 2kts
07-Jun-22 16:19 38.798369 -104.702952 356 6196ft 1kts
07-Jun-22 16:20 38.798344 -104.702951 358 6196ft 0kts
07-Jun-22 16:21 38.798344 -104.702951 358 6196ft 0kts
07-Jun-22 16:22 38.800784 -104.701055 17 6196ft 12kts
07-Jun-22 16:23 38.803957 -104.700147 88 6196ft 13kts
07-Jun-22 16:24 38.803953 -104.694358 90 6196ft 16kts
07-Jun-22 16:25 38.803803 -104.688529 114 6196ft 15kts
07-Jun-22 16:26 38.806417 -104.687659 358 6196ft 16kts
07-Jun-22 16:27 38.811474 -104.687648 359 6196ft 18kts
07-Jun-22 16:28 38.815708 -104.687614 17 6196ft 8kts
07-Jun-22 16:29 38.815922 -104.687096 83 6196ft 0kts
07-Jun-22 16:30 38.814830 -104.685729 179 6196ft 25kts
07-Jun-22 16:31 38.777369 -104.685891 180 6789ft 191kts
07-Jun-22 16:32 38.723678 -104.686436 182 8495ft 205kts
07-Jun-22 16:33 38.661015 -104.687231 181 9475ft 249kts
07-Jun-22 16:34 38.586751 -104.676646 137 9959ft 291kts
07-Jun-22 16:35 38.595199 -104.583839 28 11128ft 342kts
07-Jun-22 16:36 38.683557 -104.534942 21 13592ft 356kts
07-Jun-22 16:37 38.773972 -104.482637 22 14013ft 355kts
07-Jun-22 16:38 38.863842 -104.429867 22 14030ft 354kts
07-Jun-22 16:39 38.956614 -104.396836 359 14059ft 348kts
07-Jun-22 16:40 39.053093 -104.392633 359 14070ft 348kts
07-Jun-22 16:41 39.146127 -104.387876 359 14069ft 308kts
07-Jun-22 16:42 39.229943 -104.370998 31 14052ft 316kts
07-Jun-22 16:43 39.298842 -104.304815 33 14031ft 285kts
07-Jun-22 16:44 39.367018 -104.272133 337 14024ft 266kts
07-Jun-22 16:45 39.416085 -104.341239 307 13600ft 268kts
07-Jun-22 16:46 39.462878 -104.419415 308 11517ft 283kts
07-Jun-22 16:47 39.513067 -104.499661 312 9434ft 295kts
07-Jun-22 16:48 39.565405 -104.565358 314 8975ft 221kts
07-Jun-22 16:49 39.607940 -104.619726 312 8985ft 215kts
07-Jun-22 16:50 39.655845 -104.662195 355 8843ft 215kts
07-Jun-22 16:51 39.708911 -104.662012 358 7765ft 167kts
07-Jun-22 16:52 39.754572 -104.661514 358 6947ft 161kts
07-Jun-22 16:53 39.797482 -104.660940 0 6098ft 151kts
07-Jun-22 16:54 39.838144 -104.660413 0 5443ft 123kts
07-Jun-22 16:55 39.856676 -104.660860 287 5443ft 19kts

Navigation Log

Ident Type
Flight plan parsing failed, navigation log unavailable